createdAt,value
2016-12-08T00:00:50.049Z,99.99
2016-12-08T00:02:01.029Z,99.99
2016-12-08T00:03:12.041Z,99.99
2016-12-08T00:04:23.029Z,99.99
2016-12-08T00:05:34.017Z,99.99
2016-12-08T00:06:45.050Z,99.99
2016-12-08T00:07:56.063Z,99.99
2016-12-08T00:09:07.058Z,99.99
2016-12-08T00:10:18.042Z,99.99
2016-12-08T00:11:29.032Z,99.99
2016-12-08T00:12:40.075Z,99.99
2016-12-08T00:13:51.059Z,99.99
2016-12-08T00:15:02.049Z,99.99
2016-12-08T00:16:13.043Z,99.99
2016-12-08T00:17:24.232Z,99.99
2016-12-08T00:18:35.267Z,99.99
2016-12-08T00:19:46.257Z,99.99
2016-12-08T00:20:57.237Z,99.99
2016-12-08T00:22:08.224Z,99.99
2016-12-08T00:23:19.412Z,99.99
2016-12-08T00:24:30.448Z,99.99
2016-12-08T00:25:41.428Z,99.99
2016-12-08T00:26:52.618Z,99.99
2016-12-08T00:28:03.809Z,99.99
2016-12-08T00:29:14.793Z,99.99
2016-12-08T00:30:25.824Z,99.99
2016-12-08T00:31:36.805Z,99.99
2016-12-08T00:32:47.795Z,99.99
2016-12-08T00:33:58.784Z,99.99
2016-12-08T00:35:09.769Z,99.99
2016-12-08T00:36:21.009Z,99.99
2016-12-08T00:37:32.200Z,99.99
2016-12-08T00:38:43.384Z,99.99
2016-12-08T00:39:54.375Z,99.99
2016-12-08T00:41:05.559Z,99.99
2016-12-08T00:42:16.593Z,99.99
2016-12-08T00:43:27.578Z,99.99
2016-12-08T00:44:38.764Z,99.99
2016-12-08T00:45:49.756Z,99.99
2016-12-08T00:47:00.746Z,99.99
2016-12-08T00:48:11.788Z,99.99
2016-12-08T00:49:22.770Z,99.99
2016-12-08T00:50:33.750Z,99.99
2016-12-08T00:51:44.727Z,99.99
2016-12-08T00:52:55.716Z,99.99
2016-12-08T00:54:07.156Z,99.99
2016-12-08T00:55:18.141Z,99.99
2016-12-08T00:56:29.126Z,99.99
2016-12-08T00:57:40.120Z,99.99
2016-12-08T00:58:51.308Z,99.99
2016-12-08T01:00:02.344Z,99.99
2016-12-08T01:01:13.334Z,99.99
2016-12-08T01:02:24.316Z,99.99
2016-12-08T01:03:35.303Z,99.99
2016-12-08T01:04:46.290Z,99.99
2016-12-08T01:05:57.335Z,99.99
2016-12-08T01:07:08.521Z,99.99
2016-12-08T01:08:19.516Z,99.99
2016-12-08T01:09:30.899Z,99.99
2016-12-08T01:10:42.086Z,99.99
2016-12-08T01:11:53.126Z,99.99
2016-12-08T01:13:04.116Z,99.99
2016-12-08T01:14:15.099Z,99.99
2016-12-08T01:15:26.089Z,99.99
2016-12-08T01:16:37.074Z,99.99
2016-12-08T01:17:48.310Z,99.99
2016-12-08T01:18:59.290Z,99.99
2016-12-08T01:20:10.272Z,99.99
2016-12-08T01:21:21.253Z,99.99
2016-12-08T01:22:32.229Z,99.99
2016-12-08T01:23:43.268Z,99.99
2016-12-08T01:24:54.455Z,99.99
2016-12-08T01:26:05.446Z,99.99
2016-12-08T01:27:16.640Z,99.99
2016-12-08T01:28:27.632Z,99.99
2016-12-08T01:29:38.679Z,99.99
2016-12-08T01:30:49.690Z,99.99
2016-12-08T01:32:00.693Z,99.99
2016-12-08T01:33:11.682Z,99.99
2016-12-08T01:34:22.665Z,99.99
2016-12-08T01:35:33.702Z,99.99
2016-12-08T01:36:44.690Z,99.99
2016-12-08T01:37:55.686Z,99.99
2016-12-08T01:39:06.670Z,99.99
2016-12-08T01:40:17.660Z,99.99
2016-12-08T01:41:28.734Z,99.99
2016-12-08T01:42:39.728Z,99.99
2016-12-08T01:43:50.722Z,99.99
2016-12-08T01:45:01.907Z,99.99
2016-12-08T01:46:12.894Z,99.99
2016-12-08T01:47:23.945Z,99.99
2016-12-08T01:48:35.137Z,99.99
2016-12-08T01:49:46.124Z,99.99
2016-12-08T01:50:57.317Z,99.99
2016-12-08T01:52:08.309Z,99.99
2016-12-08T01:53:19.349Z,99.99
2016-12-08T01:54:30.343Z,99.99
2016-12-08T01:55:41.331Z,99.99
2016-12-08T01:56:52.325Z,99.99
2016-12-08T01:58:03.308Z,99.99
2016-12-08T01:59:14.341Z,99.99
2016-12-08T02:00:25.327Z,99.99
2016-12-08T02:01:36.711Z,99.99
2016-12-08T02:02:47.699Z,99.99
2016-12-08T02:03:58.681Z,99.99
2016-12-08T02:05:09.722Z,99.99
2016-12-08T02:06:20.708Z,99.99
2016-12-08T02:07:31.697Z,99.99
2016-12-08T02:08:42.678Z,99.99
2016-12-08T02:09:53.670Z,99.99
2016-12-08T02:11:04.745Z,99.99
2016-12-08T02:12:15.725Z,99.99
2016-12-08T02:13:26.721Z,99.99
2016-12-08T02:14:37.721Z,99.99
2016-12-08T02:15:48.734Z,99.99
2016-12-08T02:16:59.773Z,99.99
2016-12-08T02:18:10.766Z,99.99
2016-12-08T02:19:21.785Z,99.99
2016-12-08T02:20:32.774Z,99.99
2016-12-08T02:21:43.755Z,99.99
2016-12-08T02:22:54.797Z,99.99
2016-12-08T02:24:06.186Z,99.99
2016-12-08T02:25:17.161Z,99.99
2016-12-08T02:26:28.147Z,99.99
2016-12-08T02:27:39.128Z,99.99
2016-12-08T02:28:50.160Z,99.99
2016-12-08T02:30:01.388Z,99.99
2016-12-08T02:31:12.374Z,99.99
2016-12-08T02:32:23.357Z,99.99
2016-12-08T02:33:34.554Z,99.99
2016-12-08T02:34:45.807Z,99.99
2016-12-08T02:35:56.795Z,99.99
2016-12-08T02:37:07.983Z,99.99
2016-12-08T02:38:18.974Z,99.99
2016-12-08T02:39:29.956Z,99.99
2016-12-08T02:40:41.197Z,99.99
2016-12-08T02:41:52.179Z,99.99
2016-12-08T02:43:03.164Z,99.99
2016-12-08T02:44:14.149Z,99.99
2016-12-08T02:45:25.343Z,99.99
2016-12-08T02:46:36.386Z,99.99
2016-12-08T02:47:47.369Z,99.99
2016-12-08T02:48:58.361Z,99.99
2016-12-08T02:50:09.356Z,99.99
2016-12-08T02:51:20.342Z,99.99
2016-12-08T02:52:31.385Z,99.99
2016-12-08T02:53:42.370Z,99.99
2016-12-08T02:54:53.362Z,99.99
2016-12-08T02:56:04.347Z,99.99
2016-12-08T02:57:15.338Z,99.99
2016-12-08T02:58:26.402Z,99.99
2016-12-08T02:59:37.593Z,99.99
2016-12-08T03:00:48.595Z,99.99
2016-12-08T03:01:59.594Z,99.99
2016-12-08T03:03:10.788Z,99.99
2016-12-08T03:04:21.824Z,99.99
2016-12-08T03:05:33.212Z,99.99
2016-12-08T03:06:44.209Z,99.99
2016-12-08T03:07:55.193Z,99.99
2016-12-08T03:09:06.194Z,99.99
2016-12-08T03:10:17.454Z,99.99
2016-12-08T03:11:28.444Z,99.99
2016-12-08T03:12:39.432Z,99.99
2016-12-08T03:13:50.411Z,99.99
2016-12-08T03:15:01.402Z,99.99
2016-12-08T03:16:12.437Z,99.99
2016-12-08T03:17:23.636Z,99.99
2016-12-08T03:18:34.826Z,99.99
2016-12-08T03:19:46.017Z,99.99
2016-12-08T03:20:57.010Z,99.99
2016-12-08T03:22:08.051Z,99.99
2016-12-08T03:23:19.268Z,99.99
2016-12-08T03:24:30.253Z,99.99
2016-12-08T03:25:41.245Z,99.99
2016-12-08T03:26:52.241Z,99.99
2016-12-08T03:28:03.280Z,99.99
2016-12-08T03:29:14.267Z,99.99
2016-12-08T03:30:25.249Z,99.99
2016-12-08T03:31:36.429Z,99.99
2016-12-08T03:32:47.623Z,99.99
2016-12-08T03:33:58.663Z,99.99
2016-12-08T03:35:09.648Z,99.99
2016-12-08T03:36:20.635Z,99.99
2016-12-08T03:37:32.025Z,99.99
2016-12-08T03:38:43.246Z,99.99
2016-12-08T03:39:54.278Z,99.99
2016-12-08T03:41:05.461Z,99.99
2016-12-08T03:42:16.652Z,99.99
2016-12-08T03:43:27.644Z,99.99
2016-12-08T03:44:38.631Z,99.99
2016-12-08T03:45:49.691Z,99.99
2016-12-08T03:47:00.680Z,99.99
2016-12-08T03:48:11.663Z,99.99
2016-12-08T03:49:22.653Z,99.99
2016-12-08T03:50:33.636Z,99.99
2016-12-08T03:51:44.873Z,99.99
2016-12-08T03:52:55.858Z,99.68
2016-12-08T03:54:06.852Z,99.87
2016-12-08T03:55:17.840Z,99.99
2016-12-08T03:56:29.036Z,99.99
2016-12-08T03:57:40.078Z,99.99
2016-12-08T03:58:51.272Z,99.99
2016-12-08T04:00:02.253Z,99.99
2016-12-08T04:01:13.240Z,99.68
2016-12-08T04:02:24.230Z,99.99
2016-12-08T04:03:35.260Z,99.87
2016-12-08T04:04:46.250Z,99.77
2016-12-08T04:05:57.439Z,99.58
2016-12-08T04:07:08.626Z,99.77
2016-12-08T04:08:19.616Z,99.97
2016-12-08T04:09:30.653Z,99.99
2016-12-08T04:10:41.638Z,99.99
2016-12-08T04:11:52.825Z,99.99
2016-12-08T04:13:03.842Z,99.99
2016-12-08T04:14:14.834Z,99.99
2016-12-08T04:15:26.083Z,99.99
2016-12-08T04:16:37.272Z,99.99
2016-12-08T04:17:48.255Z,99.99
2016-12-08T04:18:59.253Z,99.99
2016-12-08T04:20:10.243Z,99.99
2016-12-08T04:21:21.296Z,99.99
2016-12-08T04:22:32.494Z,99.87
2016-12-08T04:23:43.488Z,99.87
2016-12-08T04:24:54.475Z,99.77
2016-12-08T04:26:05.465Z,99.87
2016-12-08T04:27:16.904Z,99.77
2016-12-08T04:28:27.891Z,99.87
2016-12-08T04:29:38.873Z,99.68
2016-12-08T04:30:50.062Z,99.99
2016-12-08T04:32:01.047Z,99.87
2016-12-08T04:33:12.083Z,99.77
2016-12-08T04:34:23.071Z,99.87
2016-12-08T04:35:34.052Z,99.99
2016-12-08T04:36:45.035Z,99.99
2016-12-08T04:37:56.220Z,99.99
2016-12-08T04:39:07.255Z,99.99
2016-12-08T04:40:18.246Z,99.99
2016-12-08T04:41:29.226Z,99.99
2016-12-08T04:42:40.209Z,99.99
2016-12-08T04:43:51.196Z,99.99
2016-12-08T04:45:02.234Z,99.99
2016-12-08T04:46:13.216Z,99.99
2016-12-08T04:47:24.411Z,99.99
2016-12-08T04:48:35.400Z,99.99
2016-12-08T04:49:46.383Z,99.99
2016-12-08T04:50:57.628Z,99.99
2016-12-08T04:52:08.813Z,99.99
2016-12-08T04:53:19.802Z,99.99
2016-12-08T04:54:30.821Z,99.99
2016-12-08T04:55:42.003Z,99.99
2016-12-08T04:56:53.038Z,99.99
2016-12-08T04:58:04.018Z,99.99
2016-12-08T04:59:14.996Z,99.99
2016-12-08T05:00:25.980Z,99.99
2016-12-08T05:01:36.965Z,99.99
2016-12-08T05:02:47.999Z,99.99
2016-12-08T05:03:58.983Z,99.99
2016-12-08T05:05:09.972Z,99.99
2016-12-08T05:06:20.962Z,99.99
2016-12-08T05:07:31.941Z,99.99
2016-12-08T05:08:42.972Z,99.99
2016-12-08T05:09:53.963Z,99.99
2016-12-08T05:11:05.164Z,99.99
2016-12-08T05:12:16.147Z,99.99
2016-12-08T05:13:27.140Z,99.99
2016-12-08T05:14:38.175Z,99.99
2016-12-08T05:15:49.159Z,99.99
2016-12-08T05:17:00.139Z,99.99
2016-12-08T05:18:11.130Z,99.99
2016-12-08T05:19:22.126Z,99.99
2016-12-08T05:20:33.175Z,99.99
2016-12-08T05:21:44.166Z,99.99
2016-12-08T05:22:55.156Z,99.99
2016-12-08T05:24:06.134Z,99.99
2016-12-08T05:25:17.123Z,99.99
2016-12-08T05:26:28.162Z,99.99
2016-12-08T05:27:39.145Z,99.99
2016-12-08T05:28:50.152Z,99.99
2016-12-08T05:30:01.134Z,99.99
2016-12-08T05:31:12.154Z,99.99
2016-12-08T05:32:23.195Z,99.99
2016-12-08T05:33:34.382Z,99.99
2016-12-08T05:34:45.371Z,99.99
2016-12-08T05:35:56.361Z,99.99
2016-12-08T05:37:07.364Z,99.99
2016-12-08T05:38:18.431Z,99.99
2016-12-08T05:39:29.420Z,99.99
2016-12-08T05:40:40.404Z,99.99
2016-12-08T05:41:51.393Z,99.99
2016-12-08T05:43:02.380Z,99.99
2016-12-08T05:44:13.415Z,99.99
2016-12-08T05:45:24.603Z,99.99
2016-12-08T05:46:35.591Z,99.99
2016-12-08T05:47:46.588Z,99.99
2016-12-08T05:48:57.571Z,99.99
2016-12-08T05:50:08.608Z,99.99
2016-12-08T05:51:19.800Z,99.99
2016-12-08T05:52:30.982Z,99.99
2016-12-08T05:53:41.977Z,99.99
2016-12-08T05:54:52.961Z,99.99
2016-12-08T05:56:04.198Z,99.99
2016-12-08T05:57:15.188Z,99.99
2016-12-08T05:58:26.170Z,99.99
2016-12-08T05:59:37.162Z,99.99
2016-12-08T06:00:48.166Z,99.99
2016-12-08T06:01:59.201Z,99.99
2016-12-08T06:03:10.188Z,99.99
2016-12-08T06:04:21.166Z,99.99
2016-12-08T06:05:32.155Z,99.99
2016-12-08T06:06:43.344Z,99.99
2016-12-08T06:07:54.588Z,99.99
2016-12-08T06:09:05.568Z,99.99
2016-12-08T06:10:16.554Z,99.99
2016-12-08T06:11:27.574Z,99.99
2016-12-08T06:12:38.562Z,99.99
2016-12-08T06:13:49.597Z,99.99
2016-12-08T06:15:00.781Z,99.99
2016-12-08T06:16:11.772Z,99.99
2016-12-08T06:17:22.760Z,99.99
2016-12-08T06:18:33.750Z,99.99
2016-12-08T06:19:44.788Z,99.99
2016-12-08T06:20:55.769Z,99.99
2016-12-08T06:22:06.760Z,99.99
2016-12-08T06:23:17.747Z,99.99
2016-12-08T06:24:28.736Z,99.99
2016-12-08T06:25:39.766Z,99.99
2016-12-08T06:26:50.949Z,99.99
2016-12-08T06:28:01.932Z,99.99
2016-12-08T06:29:12.915Z,99.99
2016-12-08T06:30:23.907Z,99.99
2016-12-08T06:31:35.155Z,99.99
2016-12-08T06:32:46.134Z,99.99
2016-12-08T06:33:57.327Z,99.99
2016-12-08T06:35:08.304Z,99.99
2016-12-08T06:36:19.289Z,99.99
2016-12-08T06:37:30.525Z,99.99
2016-12-08T06:38:41.515Z,99.99
2016-12-08T06:39:52.498Z,99.99
2016-12-08T06:41:03.492Z,99.99
2016-12-08T06:42:14.701Z,99.99
2016-12-08T06:43:25.942Z,99.99
2016-12-08T06:44:36.924Z,99.99
2016-12-08T06:45:47.906Z,99.99
2016-12-08T06:46:59.090Z,99.99
2016-12-08T06:48:10.076Z,99.99
2016-12-08T06:49:21.112Z,99.99
2016-12-08T06:50:32.102Z,99.99
2016-12-08T06:51:43.082Z,99.99
2016-12-08T06:52:54.271Z,99.99
2016-12-08T06:54:05.260Z,99.99
2016-12-08T06:55:16.300Z,99.99
2016-12-08T06:56:27.293Z,99.99
2016-12-08T06:57:38.485Z,99.99
2016-12-08T06:58:49.480Z,99.99
2016-12-08T07:00:00.470Z,99.99
2016-12-08T07:01:11.502Z,99.99
2016-12-08T07:02:22.530Z,99.99
2016-12-08T07:03:33.715Z,99.99
2016-12-08T07:04:44.701Z,99.99
2016-12-08T07:05:55.685Z,99.99
2016-12-08T07:07:06.713Z,99.99
2016-12-08T07:08:17.688Z,99.99
2016-12-08T07:09:28.682Z,99.99
2016-12-08T07:10:39.673Z,99.99
2016-12-08T07:11:50.858Z,99.99
2016-12-08T07:13:02.099Z,99.99
2016-12-08T07:14:13.299Z,99.99
2016-12-08T07:15:24.283Z,99.99
2016-12-08T07:16:35.277Z,99.99
2016-12-08T07:17:46.464Z,99.99
2016-12-08T07:18:57.498Z,99.99
2016-12-08T07:20:08.691Z,99.99
2016-12-08T07:21:19.681Z,99.99
2016-12-08T07:22:30.865Z,99.99
2016-12-08T07:23:41.851Z,99.99
2016-12-08T07:24:52.883Z,99.99
2016-12-08T07:26:04.076Z,99.99
2016-12-08T07:27:15.064Z,99.99
2016-12-08T07:28:26.047Z,99.99
2016-12-08T07:29:37.036Z,99.99
2016-12-08T07:30:48.073Z,99.99
2016-12-08T07:31:59.062Z,99.99
2016-12-08T07:33:10.047Z,99.99
2016-12-08T07:34:21.437Z,99.99
2016-12-08T07:35:32.424Z,99.99
2016-12-08T07:36:43.465Z,99.99
2016-12-08T07:37:54.447Z,99.99
2016-12-08T07:39:05.427Z,99.99
2016-12-08T07:40:16.411Z,99.99
2016-12-08T07:41:27.394Z,99.99
2016-12-08T07:42:38.431Z,99.99
2016-12-08T07:43:49.419Z,99.99
2016-12-08T07:45:00.411Z,99.99
2016-12-08T07:46:11.395Z,99.99
2016-12-08T07:47:22.593Z,99.73
2016-12-08T07:48:33.631Z,99.26
2016-12-08T07:49:44.827Z,99.26
2016-12-08T07:50:55.815Z,98.59
2016-12-08T07:52:06.796Z,98.87
2016-12-08T07:53:17.781Z,97.74
2016-12-08T07:54:28.816Z,98.26
2016-12-08T07:55:39.793Z,97.88
2016-12-08T07:56:50.782Z,97.31
2016-12-08T07:58:01.972Z,97.22
2016-12-08T07:59:12.986Z,97.02
2016-12-08T08:00:24.023Z,96.26
2016-12-08T08:01:35.011Z,95.79
2016-12-08T08:02:46.191Z,95.7
2016-12-08T08:03:57.385Z,94.74
2016-12-08T08:05:08.375Z,94.84
2016-12-08T08:06:19.612Z,94.37
2016-12-08T08:07:30.602Z,93.8
2016-12-08T08:08:41.583Z,93.99
2016-12-08T08:09:52.581Z,93.23
2016-12-08T08:11:03.564Z,92.13
2016-12-08T08:12:14.598Z,92.42
2016-12-08T08:13:25.782Z,91.19
2016-12-08T08:14:36.973Z,91.19
2016-12-08T08:15:47.959Z,90.9
2016-12-08T08:16:58.955Z,89.86
2016-12-08T08:18:09.983Z,89
2016-12-08T08:19:20.968Z,87.9
2016-12-08T08:20:31.957Z,87.71
2016-12-08T08:21:42.936Z,86.86
2016-12-08T08:22:54.117Z,86.29
2016-12-08T08:24:05.177Z,86.38
2016-12-08T08:25:16.157Z,86.29
2016-12-08T08:26:27.151Z,86.57
2016-12-08T08:27:38.137Z,86.57
2016-12-08T08:28:49.128Z,86.57
2016-12-08T08:30:00.161Z,87.34
2016-12-08T08:31:11.169Z,87.24
2016-12-08T08:32:22.152Z,87.34
2016-12-08T08:33:33.147Z,87.05
2016-12-08T08:34:44.131Z,87.24
2016-12-08T08:35:55.177Z,86.29
2016-12-08T08:37:06.179Z,85.47
2016-12-08T08:38:17.167Z,85.1
2016-12-08T08:39:28.159Z,85.38
2016-12-08T08:40:39.158Z,84.86
2016-12-08T08:41:50.214Z,84.14
2016-12-08T08:43:01.215Z,84.24
2016-12-08T08:44:12.236Z,83.58
2016-12-08T08:45:23.427Z,83.76
2016-12-08T08:46:34.619Z,83.67
2016-12-08T08:47:46.062Z,84.43
2016-12-08T08:48:57.058Z,84.62
2016-12-08T08:50:08.250Z,82.71
2016-12-08T08:51:19.435Z,83.48
2016-12-08T08:52:30.437Z,82.15
2016-12-08T08:53:41.505Z,82.15
2016-12-08T08:54:52.508Z,83.48
2016-12-08T08:56:03.503Z,84.43
2016-12-08T08:57:14.491Z,83.29
2016-12-08T08:58:25.511Z,83.29
2016-12-08T08:59:36.541Z,82.91
2016-12-08T09:00:47.534Z,82.53
2016-12-08T09:01:58.528Z,81.24
2016-12-08T09:03:09.521Z,79.91
2016-12-08T09:04:20.509Z,80
2016-12-08T09:05:31.549Z,81.33
2016-12-08T09:06:42.561Z,80
2016-12-08T09:07:53.552Z,79.62
2016-12-08T09:09:04.547Z,79.52
2016-12-08T09:10:15.744Z,80.66
2016-12-08T09:11:26.786Z,79.43
2016-12-08T09:12:37.781Z,78.29
2016-12-08T09:13:48.772Z,80
2016-12-08T09:14:59.755Z,79.62
2016-12-08T09:16:10.752Z,79.52
2016-12-08T09:17:21.800Z,80.38
2016-12-08T09:18:32.986Z,80.57
2016-12-08T09:19:43.977Z,79.52
2016-12-08T09:20:55.174Z,78.38
2016-12-08T09:22:06.368Z,78.57
2016-12-08T09:23:17.615Z,79.43
2016-12-08T09:24:28.610Z,78.19
2016-12-08T09:25:39.604Z,77.62
2016-12-08T09:26:50.595Z,78.77
2016-12-08T09:28:01.789Z,79.19
2016-12-08T09:29:13.034Z,78.23
2016-12-08T09:30:24.056Z,77.19
2016-12-08T09:31:35.093Z,77.62
2016-12-08T09:32:46.281Z,78.38
2016-12-08T09:33:57.269Z,78.48
2016-12-08T09:35:08.508Z,78.38
2016-12-08T09:36:19.491Z,78.48
2016-12-08T09:37:30.505Z,78.86
2016-12-08T09:38:41.692Z,78.19
2016-12-08T09:39:52.685Z,79.91
2016-12-08T09:41:03.722Z,78.48
2016-12-08T09:42:14.757Z,78.57
2016-12-08T09:43:25.745Z,78.29
2016-12-08T09:44:36.762Z,78.29
2016-12-08T09:45:47.751Z,78.29
2016-12-08T09:46:58.788Z,78.96
2016-12-08T09:48:09.778Z,78.77
2016-12-08T09:49:20.763Z,80.57
2016-12-08T09:50:31.946Z,81.33
2016-12-08T09:51:42.939Z,81.71
2016-12-08T09:52:53.978Z,81.14
2016-12-08T09:54:04.965Z,81.81
2016-12-08T09:55:15.953Z,82.19
2016-12-08T09:56:27.144Z,81.05
2016-12-08T09:57:38.130Z,79.43
2016-12-08T09:58:49.167Z,79.14
2016-12-08T10:00:00.358Z,79.91
2016-12-08T10:01:11.344Z,79.72
2016-12-08T10:02:22.332Z,79.24
2016-12-08T10:03:33.320Z,79.05
2016-12-08T10:04:44.575Z,79.43
2016-12-08T10:05:55.587Z,79.52
2016-12-08T10:07:06.579Z,79.81
2016-12-08T10:08:17.563Z,78.48
2016-12-08T10:09:28.543Z,77.81
2016-12-08T10:10:39.602Z,78.38
2016-12-08T10:11:50.795Z,78.57
2016-12-08T10:13:01.983Z,77.91
2016-12-08T10:14:12.995Z,78.48
2016-12-08T10:15:23.988Z,77.81
2016-12-08T10:16:35.026Z,77.62
2016-12-08T10:17:46.253Z,78
2016-12-08T10:18:57.245Z,78.1
2016-12-08T10:20:08.440Z,77.81
2016-12-08T10:21:19.419Z,77.62
2016-12-08T10:22:30.653Z,78.57
2016-12-08T10:23:41.640Z,78.48
2016-12-08T10:24:52.626Z,78.96
2016-12-08T10:26:03.610Z,79.14
2016-12-08T10:27:14.590Z,79.43
2016-12-08T10:28:25.630Z,80
2016-12-08T10:29:36.617Z,80.29
2016-12-08T10:30:47.803Z,79.43
2016-12-08T10:31:58.987Z,78.86
2016-12-08T10:33:09.979Z,78.38
2016-12-08T10:34:21.027Z,79.24
2016-12-08T10:35:32.006Z,78.57
2016-12-08T10:36:43.005Z,79.05
2016-12-08T10:37:53.992Z,77
2016-12-08T10:39:05.186Z,76.01
2016-12-08T10:40:16.218Z,76.96
2016-12-08T10:41:27.207Z,77.85
2016-12-08T10:42:38.204Z,77.09
2016-12-08T10:43:49.391Z,76.14
2016-12-08T10:45:00.585Z,77
2016-12-08T10:46:11.620Z,75.47
2016-12-08T10:47:22.807Z,78.61
2016-12-08T10:48:33.804Z,78.71
2016-12-08T10:49:44.791Z,78.71
2016-12-08T10:50:55.783Z,77.76
2016-12-08T10:52:06.817Z,77.37
2016-12-08T10:53:17.798Z,77.76
2016-12-08T10:54:28.790Z,77.28
2016-12-08T10:55:39.979Z,76.71
2016-12-08T10:56:50.962Z,78.23
2016-12-08T10:58:02.201Z,77
2016-12-08T10:59:13.194Z,76.9
2016-12-08T11:00:24.174Z,76.04
2016-12-08T11:01:35.169Z,77
2016-12-08T11:02:46.168Z,76.9
2016-12-08T11:03:57.198Z,75.38
2016-12-08T11:05:08.198Z,75.76
2016-12-08T11:06:19.395Z,75.85
2016-12-08T11:07:30.389Z,74.52
2016-12-08T11:08:41.383Z,77.09
2016-12-08T11:09:52.431Z,75.57
2016-12-08T11:11:03.419Z,74.9
2016-12-08T11:12:14.603Z,76.14
2016-12-08T11:13:25.997Z,75.76
2016-12-08T11:14:36.987Z,76.04
2016-12-08T11:15:48.231Z,75.47
2016-12-08T11:16:59.223Z,74.52
2016-12-08T11:18:10.234Z,75.67
2016-12-08T11:19:21.434Z,75.38
2016-12-08T11:20:32.426Z,77
2016-12-08T11:21:43.458Z,78.33
2016-12-08T11:22:54.442Z,75.76
2016-12-08T11:24:05.438Z,75.09
2016-12-08T11:25:16.419Z,74.8
2016-12-08T11:26:27.408Z,73.66
2016-12-08T11:27:38.447Z,76.04
2016-12-08T11:28:49.436Z,76.9
2016-12-08T11:30:00.425Z,75.67
2016-12-08T11:31:11.416Z,76.42
2016-12-08T11:32:22.408Z,75.28
2016-12-08T11:33:33.447Z,77.09
2016-12-08T11:34:44.656Z,75.95
2016-12-08T11:35:55.646Z,77
2016-12-08T11:37:07.038Z,76.52
2016-12-08T11:38:18.037Z,77.56
2016-12-08T11:39:29.076Z,76.23
2016-12-08T11:40:40.063Z,77.28
2016-12-08T11:41:51.050Z,76.04
2016-12-08T11:43:02.059Z,77.37
2016-12-08T11:44:13.039Z,76.61
2016-12-08T11:45:24.103Z,75.47
2016-12-08T11:46:35.093Z,76.52
2016-12-08T11:47:46.285Z,76.23
2016-12-08T11:48:57.269Z,77.37
2016-12-08T11:50:08.460Z,77.85
2016-12-08T11:51:19.507Z,77
2016-12-08T11:52:30.728Z,74.43
2016-12-08T11:53:41.715Z,75.19
2016-12-08T11:54:52.706Z,76.9
2016-12-08T11:56:03.891Z,75.38
2016-12-08T11:57:15.126Z,76.52
2016-12-08T11:58:26.313Z,77.09
2016-12-08T11:59:37.304Z,75.28
2016-12-08T12:00:48.491Z,73.38
2016-12-08T12:01:59.487Z,74.9
2016-12-08T12:03:10.524Z,73.95
2016-12-08T12:04:21.514Z,74.43
2016-12-08T12:05:32.706Z,75.47
2016-12-08T12:06:43.728Z,74.62
2016-12-08T12:07:54.716Z,75.85
2016-12-08T12:09:05.755Z,76.52
2016-12-08T12:10:16.732Z,74.9
2016-12-08T12:11:27.720Z,75.95
2016-12-08T12:12:38.738Z,74.9
2016-12-08T12:13:49.718Z,75.85
2016-12-08T12:15:00.949Z,75.67
2016-12-08T12:16:11.940Z,75.76
2016-12-08T12:17:22.929Z,75.57
2016-12-08T12:18:33.915Z,73.95
2016-12-08T12:19:45.113Z,74.52
2016-12-08T12:20:56.152Z,75.38
2016-12-08T12:22:07.348Z,74.62
2016-12-08T12:23:18.341Z,75.76
2016-12-08T12:24:29.324Z,75.38
2016-12-08T12:25:40.308Z,73.66
2016-12-08T12:26:51.352Z,74.33
2016-12-08T12:28:02.338Z,72.9
2016-12-08T12:29:13.320Z,73.19
2016-12-08T12:30:24.321Z,73.57
2016-12-08T12:31:35.337Z,73.38
2016-12-08T12:32:46.406Z,72.62
2016-12-08T12:33:57.392Z,73
2016-12-08T12:35:08.581Z,74.04
2016-12-08T12:36:19.591Z,73.66
2016-12-08T12:37:30.586Z,74.8
2016-12-08T12:38:41.649Z,74.24
2016-12-08T12:39:52.648Z,74.9
2016-12-08T12:41:03.636Z,76.14
2016-12-08T12:42:14.616Z,73.76
2016-12-08T12:43:25.608Z,72.52
2016-12-08T12:44:36.657Z,72.9
2016-12-08T12:45:47.845Z,73.57
2016-12-08T12:46:58.831Z,75.19
2016-12-08T12:48:09.815Z,76.14
2016-12-08T12:49:20.812Z,76.9
2016-12-08T12:50:31.854Z,77.47
2016-12-08T12:51:42.848Z,75.85
2016-12-08T12:52:53.832Z,76.23
2016-12-08T12:54:04.822Z,75.38
2016-12-08T12:55:15.810Z,77.56
2016-12-08T12:56:26.853Z,76.14
2016-12-08T12:57:37.841Z,75.85
2016-12-08T12:58:48.822Z,74.9
2016-12-08T12:59:59.809Z,76.33
2016-12-08T13:01:10.801Z,76.52
2016-12-08T13:02:21.857Z,76.14
2016-12-08T13:03:32.855Z,75.95
2016-12-08T13:04:43.841Z,76.61
2016-12-08T13:05:54.830Z,75.67
2016-12-08T13:07:05.836Z,75.38
2016-12-08T13:08:16.871Z,78.33
2016-12-08T13:09:27.858Z,77.19
2016-12-08T13:10:38.841Z,75.09
2016-12-08T13:11:49.827Z,76.04
2016-12-08T13:13:00.812Z,75.09
2016-12-08T13:14:11.852Z,74.8
2016-12-08T13:15:22.841Z,74.99
2016-12-08T13:16:34.036Z,75.76
2016-12-08T13:17:45.034Z,73.47
2016-12-08T13:18:56.055Z,74.43
2016-12-08T13:20:07.097Z,75.67
2016-12-08T13:21:18.283Z,77.56
2016-12-08T13:22:29.279Z,77.09
2016-12-08T13:23:40.273Z,77.47
2016-12-08T13:24:51.268Z,77.66
2016-12-08T13:26:02.509Z,76.23
2016-12-08T13:27:13.503Z,76.9
2016-12-08T13:28:24.493Z,75.76
2016-12-08T13:29:35.480Z,74.52
2016-12-08T13:30:46.476Z,75.67
2016-12-08T13:31:57.515Z,75.57
2016-12-08T13:33:08.504Z,74.04
2016-12-08T13:34:19.895Z,75.19
2016-12-08T13:35:30.876Z,76.14
2016-12-08T13:36:41.856Z,75.57
2016-12-08T13:37:52.889Z,75.67
2016-12-08T13:39:04.084Z,75.47
2016-12-08T13:40:15.060Z,76.23
2016-12-08T13:41:26.087Z,74.62
2016-12-08T13:42:37.082Z,74.8
2016-12-08T13:43:48.117Z,75.47
2016-12-08T13:44:59.105Z,75.38
2016-12-08T13:46:10.093Z,75.19
2016-12-08T13:47:21.076Z,75.34
2016-12-08T13:48:32.274Z,76.48
2016-12-08T13:49:43.314Z,75.72
2016-12-08T13:50:54.315Z,75.91
2016-12-08T13:52:05.311Z,76.01
2016-12-08T13:53:16.301Z,77.05
2016-12-08T13:54:27.286Z,76.48
2016-12-08T13:55:38.323Z,76.01
2016-12-08T13:56:49.308Z,75.15
2016-12-08T13:58:00.297Z,76.2
2016-12-08T13:59:11.295Z,75.81
2016-12-08T14:00:22.284Z,77.72
2016-12-08T14:01:33.360Z,77.53
2016-12-08T14:02:44.354Z,77.34
2016-12-08T14:03:55.353Z,76.76
2016-12-08T14:05:06.556Z,76.29
2016-12-08T14:06:17.753Z,75.43
2016-12-08T14:07:28.822Z,76.67
2016-12-08T14:08:40.238Z,76.96
2016-12-08T14:09:51.453Z,76.01
2016-12-08T14:11:02.439Z,77.24
2016-12-08T14:12:13.421Z,77.53
2016-12-08T14:13:24.457Z,75.91
2016-12-08T14:14:35.443Z,76.76
2016-12-08T14:15:46.424Z,76.39
2016-12-08T14:16:57.408Z,76.48
2016-12-08T14:18:08.411Z,77.24
2016-12-08T14:19:19.646Z,76.96
2016-12-08T14:20:30.834Z,75.81
2016-12-08T14:21:41.812Z,77.05
2016-12-08T14:22:53.006Z,77.72
2016-12-08T14:24:03.992Z,76.2
2016-12-08T14:25:15.229Z,77.05
2016-12-08T14:26:26.216Z,77.81
2016-12-08T14:27:37.211Z,76.29
2016-12-08T14:28:48.193Z,76.76
2016-12-08T14:29:59.185Z,77.53
2016-12-08T14:31:10.422Z,77.62
2016-12-08T14:32:21.405Z,78.48
2016-12-08T14:33:32.398Z,77.81
2016-12-08T14:34:43.385Z,78.29
2016-12-08T14:35:54.374Z,76.67
2016-12-08T14:37:05.404Z,77.72
2016-12-08T14:38:16.392Z,78.19
2016-12-08T14:39:27.374Z,78.19
2016-12-08T14:40:38.554Z,77.72
2016-12-08T14:41:49.552Z,77.15
2016-12-08T14:43:00.590Z,77.05
2016-12-08T14:44:11.572Z,77.91
2016-12-08T14:45:22.553Z,77.34
2016-12-08T14:46:33.545Z,78
2016-12-08T14:47:44.541Z,78.57
2016-12-08T14:48:55.579Z,79.14
2016-12-08T14:50:06.568Z,78.67
2016-12-08T14:51:17.557Z,78.96
2016-12-08T14:52:28.570Z,77.72
2016-12-08T14:53:39.554Z,77.81
2016-12-08T14:54:50.594Z,77.91
2016-12-08T14:56:01.575Z,77.72
2016-12-08T14:57:12.768Z,80
2016-12-08T14:58:23.747Z,78.67
2016-12-08T14:59:34.735Z,80.72
2016-12-08T15:00:45.770Z,78.96
2016-12-08T15:01:57.152Z,78.38
2016-12-08T15:03:08.146Z,78.72
2016-12-08T15:04:19.340Z,77.53
2016-12-08T15:05:30.324Z,76.67
2016-12-08T15:06:41.362Z,77.11
2016-12-08T15:07:52.546Z,78.34
2016-12-08T15:09:03.533Z,78.34
2016-12-08T15:10:14.719Z,78.06
2016-12-08T15:11:25.909Z,78.82
2016-12-08T15:12:36.954Z,79.86
2016-12-08T15:13:47.947Z,78.34
2016-12-08T15:14:59.142Z,78.72
2016-12-08T15:16:10.145Z,79.86
2016-12-08T15:17:21.338Z,78.91
2016-12-08T15:18:32.384Z,80.15